Latest Weather Observations for Warburton

IDD60801

Issued at 3:01 pm CST Monday 23 September 2019 (issued every 10 minutes, with the page automatically refreshed every 10 minutes)

About weather observations | Map of weather stations | Latest weather observations for NT | Other Formats
Station Details ID: 013011 Name: WARBURTON AIRFIELD Lat: -26.13 Lon: 126.58 Height: 459.0 m
Data from the previous 72 hours. | See also: Recent months at Warburton
Date/Time
CST
Temp
°C
App
Temp
°C
Dew
Point
°C
Rel
Hum
%
Delta-T
°C
Wind Press
QNH
hPa
Press
MSL
hPa
Rain since
9am
mm
Dir  Spd
km/h
Gust
km/h
Spd
kts
Gust
kts
23/02:30pm 22.9 16.6 -4.2 16 11.5 ENE 20 35 11 19 1026.5 1025.0 0.0
23/02:00pm 22.9 16.6 -4.2 16 11.6 ENE 20 30 11 16 1026.8 1025.3 0.0
23/01:30pm 23.2 16.9 -4.0 16 11.6 ENE 20 28 11 15 1027.4 1025.9 0.0
23/01:00pm 23.5 17.2 -3.7 16 11.8 E 20 30 11 16 1028.0 1026.5 0.0
23/12:30pm 22.2 15.6 -3.2 18 10.9 E 22 33 12 18 1028.0 1026.5 0.0
23/12:00pm 21.2 14.7 -2.6 20 10.3 E 22 32 12 17 1028.3 1026.8 0.0
23/11:30am 20.2 13.0 -2.2 22 9.7 ESE 26 37 14 20 1028.5 1027.0 0.0
23/11:00am 19.1 11.9 -1.9 24 9.1 E 26 37 14 20 1028.8 1027.3 0.0
23/10:30am 18.3 11.5 -2.0 25 8.6 E 24 33 13 18 1029.0 1027.5 0.0
23/10:00am 17.9 11.1 -1.9 26 8.5 ESE 24 39 13 21 1029.2 1027.7 0.0
23/09:30am 16.5 9.0 -1.6 29 7.6 ESE 28 43 15 23 1029.0 1027.5 0.0
23/09:00am 15.6 7.7 -1.9 30 7.3 ESE 30 43 16 23 1028.9 1027.4 0.0
23/08:30am 15.0 7.4 -2.0 31 7.0 ESE 28 41 15 22 1028.6 1027.1 0.0
23/08:00am 14.5 6.9 -2.0 32 6.8 ESE 28 43 15 23 1027.9 1026.4 0.0
23/07:30am 14.2 6.6 -2.2 32 6.7 ESE 28 37 15 20 1027.7 1026.2 0.0
23/07:00am 14.4 7.9 -2.1 32 6.8 ESE 22 33 12 18 1028.1 1026.7 0.0
23/06:30am 14.4 8.3 -2.5 31 6.9 ESE 20 26 11 14 1028.3 1026.8 0.0
23/06:00am 14.4 7.5 -2.5 31 6.9 ESE 24 37 13 20 1027.4 1025.9 0.0
23/05:30am 14.4 7.5 -2.5 31 6.9 ESE 24 39 13 21 1027.0 1025.5 0.0
23/05:00am 14.5 6.4 -2.8 30 7.0 ESE 30 37 16 20 1026.4 1024.9 0.0
23/04:30am 14.6 7.3 -3.2 29 7.1 ESE 26 35 14 19 1026.5 1025.0 0.0
23/04:00am 14.7 7.4 -3.1 29 7.2 ESE 26 39 14 21 1025.8 1024.3 0.0
23/03:30am 14.9 7.1 -3.4 28 7.3 SE 28 39 15 21 1025.5 1024.0 0.0
23/03:00am 14.9 7.9 -3.9 27 7.5 ESE 24 35 13 19 1026.2 1024.6 0.0
23/02:30am 15.0 8.7 -4.3 26 7.6 ESE 20 30 11 16 1027.0 1025.5 0.0
23/02:00am 15.1 8.9 -5.3 24 7.9 ESE 19 28 10 15 1027.2 1025.7 0.0
23/01:30am 15.1 9.5 -6.4 22 8.1 SE 15 22 8 12 1027.5 1026.0 0.0
23/01:00am 15.2 10.0 -6.3 22 8.2 SE 13 20 7 11 1027.6 1026.1 0.0
23/12:30am 15.8 10.2 -6.5 21 8.4 ESE 15 24 8 13 1027.5 1026.0 0.0
23/12:00am 16.1 10.1 -6.8 20 8.7 ESE 17 22 9 12 1027.4 1025.9 0.0
 
Date/Time
CST
Temp
°C
App
Temp
°C
Dew
Point
°C
Rel
Hum
%
Delta-T
°C
Wind Press
QNH
hPa
Press
MSL
hPa
Rain since
9am
mm
Dir  Spd
km/h
Gust
km/h
Spd
kts
Gust
kts
22/11:30pm 15.8 10.5 -7.7 19 8.6 ESE 13 19 7 10 1027.5 1026.0 0.0
22/11:00pm 16.2 10.4 -8.1 18 9.0 SE 15 19 8 10 1027.6 1026.1 0.0
22/10:30pm 16.8 11.0 -8.4 17 9.2 SE 15 20 8 11 1027.6 1026.1 0.0
22/10:00pm 17.3 11.9 -7.9 17 9.5 SE 13 19 7 10 1027.6 1026.1 0.0
22/09:30pm 17.9 12.1 -8.2 16 9.7 SE 15 19 8 10 1027.5 1026.0 0.0
22/09:00pm 18.7 12.9 -8.4 15 10.2 SE 15 20 8 11 1027.0 1025.5 0.0
22/08:30pm 19.3 13.6 -7.9 15 10.4 SE 15 19 8 10 1026.6 1025.1 0.0
22/08:00pm 20.2 14.1 -8.1 14 10.9 SE 17 24 9 13 1026.3 1024.8 0.0
22/07:30pm 20.8 14.2 -8.6 13 11.2 SE 19 28 10 15 1026.0 1024.4 0.0
22/07:00pm 21.5 14.4 -8.0 13 11.6 SE 22 30 12 16 1025.5 1024.0 0.0
22/06:30pm 22.2 15.2 -7.5 13 11.8 SE 22 30 12 16 1025.2 1023.7 0.0
22/06:00pm 22.9 16.3 -6.9 13 12.1 ESE 20 30 11 16 1024.9 1023.4 0.0
22/05:30pm 23.0 15.9 -7.9 12 12.3 ESE 22 33 12 18 1024.7 1023.2 0.0
22/05:00pm 23.3 16.3 -7.7 12 12.4 ESE 22 32 12 17 1024.6 1023.1 0.0
22/04:30pm 23.4 16.5 -6.5 13 12.2 SE 22 35 12 19 1024.5 1023.0 0.0
22/04:00pm 23.6 16.7 -6.4 13 12.4 SE 22 37 12 20 1024.5 1023.0 0.0
22/03:30pm 23.5 17.1 -6.5 13 12.3 SE 19 30 10 16 1024.8 1023.3 0.0
22/03:00pm 23.1 16.6 -5.8 14 12.0 SE 20 30 11 16 1025.0 1023.5 0.0
22/02:30pm 22.9 16.0 -6.0 14 11.9 SE 22 32 12 17 1025.1 1023.6 0.0
22/02:00pm 22.6 16.4 -5.3 15 11.6 SE 19 32 10 17 1025.5 1024.0 0.0
22/01:30pm 21.9 15.1 -5.0 16 11.2 SE 22 30 12 16 1026.2 1024.6 0.0
22/01:00pm 21.6 15.2 -4.5 17 11.0 SE 20 28 11 15 1026.7 1025.2 0.0
22/12:30pm 20.6 13.6 -3.8 19 10.2 SE 24 35 13 19 1027.0 1025.5 0.0
22/12:00pm 19.6 12.2 -3.9 20 9.8 ESE 26 39 14 21 1027.3 1025.8 0.0
22/11:30am 19.9 13.0 -3.0 21 9.7 SE 24 35 13 19 1027.7 1026.2 0.0
22/11:00am 18.5 10.0 -3.0 23 9.0 SE 32 43 17 23 1028.0 1026.5 0.0
22/10:30am 17.5 9.5 -2.7 25 8.4 ESE 30 41 16 22 1028.4 1026.9 0.0
22/10:00am 16.9 8.5 -2.7 26 8.2 ESE 32 43 17 23 1028.5 1027.0 0.0
22/09:30am 16.1 8.5 -2.4 28 7.6 ESE 28 44 15 24 1028.6 1027.1 0.0
22/09:00am 14.7 6.7 -2.7 30 7.1 ESE 30 43 16 23 1028.6 1027.1 0.0
22/08:30am 13.3 6.7 -3.0 32 6.5 ESE 22 30 12 16 1028.4 1026.9 0.0
22/08:00am 11.3 5.6 -3.6 35 5.7 SE 17 22 9 12 1027.9 1026.4 0.0
22/07:30am 9.7 4.7 -4.3 37 5.2 SE 13 20 7 11 1027.5 1026.0 0.0
22/07:00am 9.1 4.5 -4.4 38 5.0 SE 11 15 6 8 1027.2 1025.7 0.0
22/06:30am 9.4 4.4 -4.2 38 5.0 SE 13 19 7 10 1026.9 1025.4 0.0
22/06:00am 9.5 4.5 -4.1 38 5.1 SE 13 15 7 8 1026.6 1025.1 0.0
22/05:30am 9.5 4.9 -4.4 37 5.1 SE 11 15 6 8 1026.1 1024.5 0.0
22/05:00am 9.6 5.0 -4.4 37 5.2 SE 11 15 6 8 1025.6 1024.1 0.0
22/04:30am 10.0 5.4 -4.4 36 5.3 ESE 11 17 6 9 1025.4 1023.9 0.0
22/04:00am 10.7 5.7 -4.1 35 5.6 SE 13 17 7 9 1025.4 1023.9 0.0
22/03:30am 10.8 6.2 -4.4 34 5.7 ESE 11 13 6 7 1025.4 1023.9 0.0
22/03:00am 11.8 6.5 -3.9 33 6.0 SE 15 24 8 13 1025.4 1023.9 0.0
22/02:30am 12.1 6.7 -4.1 32 6.2 SE 15 20 8 11 1025.7 1024.2 0.0
22/02:00am 12.7 6.6 -4.0 31 6.5 SE 19 24 10 13 1025.8 1024.3 0.0
22/01:30am 12.9 6.6 -3.8 31 6.5 SE 20 26 11 14 1025.8 1024.3 0.0
22/01:00am 13.1 6.8 -3.6 31 6.6 SE 20 28 11 15 1025.6 1024.1 0.0
22/12:30am 13.2 7.1 -3.5 31 6.5 SE 19 26 10 14 1025.7 1024.2 0.0
22/12:00am 13.7 8.1 -3.1 31 6.7 SE 17 24 9 13 1025.8 1024.3 0.0
 
Date/Time
CST
Temp
°C
App
Temp
°C
Dew
Point
°C
Rel
Hum
%
Delta-T
°C
Wind Press
QNH
hPa
Press
MSL
hPa
Rain since
9am
mm
Dir  Spd
km/h
Gust
km/h
Spd
kts
Gust
kts
21/11:30pm 14.0 8.4 -3.3 30 6.9 SE 17 26 9 14 1026.0 1024.4 0.0
21/11:00pm 14.5 8.5 -3.3 29 7.2 SE 19 26 10 14 1025.7 1024.2 0.0
21/10:30pm 14.8 9.1 -3.5 28 7.3 SE 17 22 9 12 1026.0 1024.4 0.0
21/10:00pm 15.0 9.7 -3.8 27 7.5 SE 15 19 8 10 1025.6 1024.1 0.0
21/09:30pm 15.5 9.7 -5.0 24 8.0 SE 17 20 9 11 1025.3 1023.8 0.0
21/09:00pm 15.6 10.4 -6.0 22 8.3 SSE 13 17 7 9 1025.0 1023.5 0.0
21/08:30pm 16.5 11.3 -6.5 20 8.8 SE 13 17 7 9 1024.6 1023.1 0.0
21/08:00pm 17.2 12.0 -5.9 20 9.0 SE 13 19 7 10 1024.4 1022.9 0.0
21/07:30pm 17.7 12.1 -6.9 18 9.4 SE 15 20 8 11 1024.1 1022.5 0.0
21/07:00pm 18.2 12.1 -7.2 17 9.8 SE 17 24 9 13 1023.5 1022.0 0.0
21/06:30pm 18.8 12.3 -7.5 16 10.1 SE 19 24 10 13 1023.2 1021.7 0.0
21/06:00pm 19.4 13.4 -7.0 16 10.3 ESE 17 26 9 14 1022.8 1021.3 0.0
21/05:30pm 19.8 13.8 -6.7 16 10.4 ESE 17 30 9 16 1022.7 1021.2 0.0
21/05:00pm 20.0 13.5 -7.4 15 10.7 ESE 19 28 10 15 1022.5 1021.0 0.0
21/04:30pm 19.8 13.1 -7.5 15 10.6 ESE 20 32 11 17 1022.5 1021.0 0.0
21/04:00pm 20.0 14.3 -7.4 15 10.7 ESE 15 33 8 18 1022.6 1021.1 0.0
21/03:30pm 19.2 14.0 -6.4 17 10.1 ESE 13 19 7 10 1022.9 1021.4 0.0
21/03:00pm 18.8 12.8 -6.7 17 10.0 SE 17 28 9 15 1023.1 1021.6 0.0
21/02:30pm 19.2 13.2 -6.4 17 10.1 SE 17 28 9 15 1023.4 1021.9 0.0
21/02:00pm 18.7 12.4 -5.4 19 9.7 ESE 19 30 10 16 1023.9 1022.3 0.0
21/01:30pm 18.4 12.2 -4.9 20 9.4 SE 19 37 10 20 1024.4 1022.9 0.0
21/01:00pm 17.9 11.5 -4.7 21 9.1 SE 20 30 11 16 1024.8 1023.3 0.0
21/12:30pm 17.9 11.3 -2.9 24 8.7 SE 22 30 12 16 1025.2 1023.7 0.0
21/12:00pm 16.7 10.5 -3.4 25 8.2 ESE 20 33 11 18 1025.6 1024.1 0.0
21/11:30am 15.6 9.1 -2.8 28 7.5 SE 22 35 12 19 1025.8 1024.3 0.0
21/11:00am 15.0 8.1 -2.4 30 7.2 SE 24 37 13 20 1026.2 1024.6 0.0
21/10:30am 15.0 8.1 -2.4 30 7.1 ESE 24 32 13 17 1026.3 1024.8 0.0
21/10:00am 13.5 5.9 -2.0 34 6.3 ESE 28 39 15 21 1026.4 1024.9 0.0
21/09:30am 12.9 5.8 -1.4 37 5.9 ESE 26 35 14 19 1026.4 1024.9 0.0
21/09:00am 12.0 4.9 -1.2 40 5.4 ESE 26 35 14 19 1026.5 1025.0 0.0
21/08:30am 10.4 3.3 -1.3 44 4.7 ESE 26 37 14 20 1026.3 1024.8 0.0
21/08:00am 9.4 2.6 -1.6 46 4.4 ESE 24 33 13 18 1025.8 1024.3 0.0
21/07:30am 8.1 2.5 -2.5 47 4.0 ESE 17 24 9 13 1025.5 1024.0 0.0
21/07:00am 7.7 1.7 -3.2 46 4.1 ESE 19 26 10 14 1025.3 1023.8 0.0
21/06:30am 8.1 2.1 -3.1 45 4.2 ESE 19 24 10 13 1025.0 1023.5 0.0
21/06:00am 8.4 2.7 -3.7 42 4.5 SE 17 24 9 13 1024.8 1023.3 0.0
21/05:30am 8.7 2.5 -5.2 37 5.0 SE 19 24 10 13 1024.3 1022.7 0.0
21/05:00am 9.2 2.9 -5.4 35 5.3 SE 19 26 10 14 1023.8 1022.2 0.0
21/04:30am 9.0 3.8 -6.0 34 5.3 SE 13 19 7 10 1023.4 1021.9 0.0
21/04:00am 9.2 4.0 -6.6 32 5.5 SE 13 19 7 10 1023.4 1021.9 0.0
21/03:30am 9.6 4.0 -6.7 31 5.7 SE 15 20 8 11 1023.4 1021.9 0.0
21/03:00am 9.8 4.2 -6.5 31 5.8 SE 15 20 8 11 1023.4 1021.9 0.0
21/02:30am 10.0 4.4 -6.8 30 5.9 SE 15 20 8 11 1023.4 1021.9 0.0
21/02:00am 10.1 4.4 -7.1 29 6.0 SE 15 19 8 10 1023.4 1021.9 0.0
21/01:30am 10.7 5.0 -7.0 28 6.2 SE 15 20 8 11 1023.5 1022.0 0.0
21/01:00am 11.2 5.2 -7.1 27 6.5 SSE 17 28 9 15 1023.4 1021.9 0.0
21/12:30am 11.6 5.2 -7.2 26 6.7 SSE 19 26 10 14 1023.5 1022.0 0.0
21/12:00am 12.2 5.8 -7.2 25 7.0 SSE 19 26 10 14 1023.4 1021.9 0.0
 
Date/Time
CST
Temp
°C
App
Temp
°C
Dew
Point
°C
Rel
Hum
%
Delta-T
°C
Wind Press
QNH
hPa
Press
MSL
hPa
Rain since
9am
mm
Dir  Spd
km/h
Gust
km/h
Spd
kts
Gust
kts
20/11:30pm 12.5 6.0 -7.5 24 7.1 SSE 19 24 10 13 1023.4 1021.9 0.0
20/11:00pm 12.8 6.7 -7.8 23 7.3 SSE 17 22 9 12 1023.2 1021.7 0.0
20/10:30pm 12.9 7.1 -8.3 22 7.4 SE 15 19 8 10 1023.3 1021.8 0.0
20/10:00pm 13.3 7.9 -8.5 21 7.7 SE 13 17 7 9 1023.3 1021.8 0.0
20/09:30pm 13.6 8.2 -8.9 20 7.9 SSE 13 19 7 10 1023.2 1021.7 0.0
20/09:00pm 14.2 8.7 -9.1 19 8.2 SSE 13 19 7 10 1022.9 1021.4 0.0
20/08:30pm 14.6 9.6 -8.7 19 8.3 SSE 11 17 6 9 1022.4 1020.9 0.0
20/08:00pm 15.4 9.2 -9.5 17 8.8 SSE 17 22 9 12 1022.0 1020.4 0.0
20/07:30pm 16.0 9.8 -9.0 17 9.0 SSE 17 26 9 14 1021.7 1020.1 0.0
20/07:00pm 16.6 9.8 -9.3 16 9.4 SSE 20 28 11 15 1021.4 1019.8 0.0
20/06:30pm 17.3 11.1 -8.7 16 9.6 SSE 17 26 9 14 1020.9 1019.4 0.0
20/06:00pm 17.7 11.0 -8.4 16 9.7 SSE 20 30 11 16 1020.6 1019.1 0.0
20/05:30pm 18.2 12.4 -8.8 15 10.0 SSE 15 28 8 15 1020.3 1018.7 0.0
20/05:00pm 18.4 11.3 -8.7 15 10.1 S 22 33 12 18 1020.2 1018.6 0.0

Other formats

Comma delimited format used in spreadsheet applications
http://www.bom.gov.au/fwo/IDD60801/IDD60801.94457.axf

JavaScript Object Notation format (JSON) in row-major order
http://www.bom.gov.au/fwo/IDD60801/IDD60801.94457.json

Data quality

Most of these data are generated automatically and are frequently updated. Quality checks on data are not normally performed. It is possible for incorrect values to appear. Refer to information at About Latest Weather Observations and please check the disclaimer before using these data.